Karasuk, Russia
Current Conditions -  °F | °C
As of 6:00 PM on Thursday 23 Oct 2014 (Local Time) from UASP Reporting Station
Broken Clouds Broken Clouds  
Wind Chill: 42°   Ceiling: 10000
Heat Index: 45°   Visibility: 6mi
Dew Point: 34°   Wind: 4mph
Humidity: 66%   Direction: 150°SSE
Pressure: 29.77"   Gusts: NA
Location:  53.73°N, 78.03°E
Report Text: UASP 231100Z 15002MPS 9999 FEW040 BKN100 07/01 Q1008 R21/0///70NOSIG RMK QFE744/0993
Loading
Personal Weather Stations






























Interactive Weather Map
Tropical Storm Tracking
New forecast layout! Learn more

10-Day Weather Forecast

Advertisements
Track Severe Weather on mobile